Time;durP1;ratioP1;P1;durP2;ratioP2;P2;SDS_P1;SDS_P2;PMS_P1;PMS_P2;Temp;Humidity;BMP_temperature;BMP_pressure;BME280_temperature;BME280_humidity;BME280_pressure;Samples;Min_cycle;Max_cycle;Signal;HPM_P1;HPM_P2
2023/09/16 00:01:19;;;;;;;1.95;1.50;;;;;;;;;;5026043;28;20124;-61
2023/09/16 00:03:46;;;;;;;1.50;1.40;;;;;;;;;;5025798;28;20037;-61
2023/09/16 00:06:12;;;;;;;1.85;1.70;;;;;;;;;;5025458;28;20044;-62
2023/09/16 00:08:39;;;;;;;1.33;1.23;;;;;;;;;;5025387;28;20045;-61
2023/09/16 00:11:05;;;;;;;1.60;1.50;;;;;;;;;;5025150;28;20099;-61
2023/09/16 00:13:31;;;;;;;1.50;1.40;;;;;;;;;;5025841;28;20041;-61
2023/09/16 00:15:57;;;;;;;1.75;1.65;;;;;;;;;;5022772;28;20154;-61
2023/09/16 00:18:23;;;;;;;1.50;1.40;;;;;;;;;;5024878;28;20449;-61
2023/09/16 00:20:49;;;;;;;2.67;1.40;;;;;;;;;;5025320;28;20041;-61
2023/09/16 00:23:15;;;;;;;2.13;1.52;;;;;;;;;;5025710;28;20045;-61
2023/09/16 00:25:42;;;;;;;1.52;1.42;;;;;;;;;;5025212;28;20048;-61
2023/09/16 00:28:08;;;;;;;1.70;1.60;;;;;;;;;;5024227;28;20038;-61
2023/09/16 00:30:35;;;;;;;1.98;1.77;;;;;;;;;;5025722;28;20049;-61
2023/09/16 00:33:03;;;;;;;1.30;1.20;;;;;;;;;;5024059;28;20559;-61
2023/09/16 00:35:29;;;;;;;1.50;1.40;;;;;;;;;;5024121;28;20100;-61
2023/09/16 00:37:55;;;;;;;1.63;1.52;;;;;;;;;;5024966;28;20045;-61
2023/09/16 00:40:21;;;;;;;1.80;1.70;;;;;;;;;;5023491;28;20049;-61
2023/09/16 00:42:47;;;;;;;1.80;1.70;;;;;;;;;;5024466;28;20402;-61
2023/09/16 00:45:14;;;;;;;2.25;2.00;;;;;;;;;;5024915;28;20041;-61
2023/09/16 00:47:40;;;;;;;1.60;1.50;;;;;;;;;;5024761;28;20064;-61
2023/09/16 00:50:07;;;;;;;1.65;1.55;;;;;;;;;;5024763;28;20528;-61
2023/09/16 00:52:37;;;;;;;1.55;1.45;;;;;;;;;;5025166;28;20057;-61
2023/09/16 00:55:04;;;;;;;1.80;1.55;;;;;;;;;;5023782;28;20041;-62
2023/09/16 00:57:32;;;;;;;1.38;1.27;;;;;;;;;;5024867;28;20037;-61
2023/09/16 00:59:58;;;;;;;2.40;1.88;;;;;;;;;;5024511;28;20175;-61
2023/09/16 01:02:24;;;;;;;1.70;1.60;;;;;;;;;;5024383;28;20045;-61
2023/09/16 01:04:50;;;;;;;1.80;1.70;;;;;;;;;;5024572;28;20083;-61
2023/09/16 01:07:17;;;;;;;1.85;1.75;;;;;;;;;;5024786;28;20140;-61
2023/09/16 01:09:43;;;;;;;1.95;1.83;;;;;;;;;;5024389;28;20420;-61
2023/09/16 01:12:10;;;;;;;2.25;2.05;;;;;;;;;;5025556;28;20382;-62
2023/09/16 01:14:37;;;;;;;2.25;2.05;;;;;;;;;;5024250;28;20528;-61
2023/09/16 01:17:09;;;;;;;2.13;2.03;;;;;;;;;;5024522;28;20037;-61
2023/09/16 01:19:57;;;;;;;2.03;1.83;;;;;;;;;;5024963;28;20080;-61
2023/09/16 01:22:23;;;;;;;2.83;2.13;;;;;;;;;;5023517;28;20041;-61
2023/09/16 01:24:53;;;;;;;2.25;2.05;;;;;;;;;;5024441;28;20037;-61
2023/09/16 01:27:20;;;;;;;1.80;1.70;;;;;;;;;;5024080;28;20050;-61
2023/09/16 01:29:46;;;;;;;2.42;2.22;;;;;;;;;;5022431;28;20051;-61
2023/09/16 01:32:13;;;;;;;2.22;2.13;;;;;;;;;;5024961;28;20611;-61
2023/09/16 01:34:41;;;;;;;1.85;1.70;;;;;;;;;;5024936;28;20474;-61
2023/09/16 01:37:07;;;;;;;1.95;1.85;;;;;;;;;;5023616;28;20040;-61
2023/09/16 01:39:35;;;;;;;2.38;2.17;;;;;;;;;;5024831;28;20140;-61
2023/09/16 01:42:01;;;;;;;2.22;2.10;;;;;;;;;;5024152;28;20087;-61
2023/09/16 01:44:27;;;;;;;2.00;1.90;;;;;;;;;;5024271;28;20053;-61
2023/09/16 01:46:57;;;;;;;1.75;1.65;;;;;;;;;;5024085;28;20742;-61
2023/09/16 01:49:23;;;;;;;2.70;2.22;;;;;;;;;;5024411;28;20092;-61
2023/09/16 01:51:49;;;;;;;1.80;1.70;;;;;;;;;;5023087;28;20040;-61
2023/09/16 01:54:15;;;;;;;2.50;2.30;;;;;;;;;;5028390;28;20037;-61
2023/09/16 01:56:43;;;;;;;2.00;1.90;;;;;;;;;;5023455;28;20680;-61
2023/09/16 01:59:09;;;;;;;1.98;1.88;;;;;;;;;;5028435;28;20041;-61
2023/09/16 02:01:35;;;;;;;1.95;1.80;;;;;;;;;;5024654;28;20056;-61
2023/09/16 02:04:01;;;;;;;1.98;1.88;;;;;;;;;;5027073;28;20029;-61
2023/09/16 02:06:27;;;;;;;1.73;1.63;;;;;;;;;;5028137;28;20046;-61
2023/09/16 02:08:53;;;;;;;2.03;1.55;;;;;;;;;;5027998;28;20099;-61
2023/09/16 02:11:19;;;;;;;1.98;1.88;;;;;;;;;;5026571;28;20041;-61
2023/09/16 02:13:45;;;;;;;1.83;1.73;;;;;;;;;;5027085;28;20571;-61
2023/09/16 02:16:11;;;;;;;2.08;1.90;;;;;;;;;;5028192;28;20041;-62
2023/09/16 02:18:37;;;;;;;2.15;1.95;;;;;;;;;;5027062;28;20052;-61
2023/09/16 02:21:03;;;;;;;1.80;1.70;;;;;;;;;;5027650;28;20037;-61
2023/09/16 02:23:30;;;;;;;2.10;2.00;;;;;;;;;;5027947;28;20037;-61
2023/09/16 02:26:00;;;;;;;2.15;2.05;;;;;;;;;;5026659;28;20092;-61
2023/09/16 02:28:26;;;;;;;1.80;1.70;;;;;;;;;;5025473;28;20045;-61
2023/09/16 02:30:52;;;;;;;1.52;1.42;;;;;;;;;;5027188;28;20037;-61
2023/09/16 02:33:18;;;;;;;2.10;2.00;;;;;;;;;;5026038;28;20401;-62
2023/09/16 02:35:44;;;;;;;2.00;1.60;;;;;;;;;;5027623;28;20060;-60
2023/09/16 02:38:10;;;;;;;2.17;2.00;;;;;;;;;;5027930;28;20120;-61
2023/09/16 02:40:40;;;;;;;2.38;2.17;;;;;;;;;;5026967;28;20060;-61
2023/09/16 02:43:06;;;;;;;2.00;1.90;;;;;;;;;;5026707;28;20046;-61
2023/09/16 02:45:32;;;;;;;1.55;1.45;;;;;;;;;;5027722;28;20133;-61
2023/09/16 02:47:58;;;;;;;2.35;2.15;;;;;;;;;;5026618;28;20140;-61
2023/09/16 02:50:24;;;;;;;2.08;1.88;;;;;;;;;;5026193;28;20504;-61
2023/09/16 02:52:50;;;;;;;1.83;1.70;;;;;;;;;;5026307;28;20037;-61
2023/09/16 02:55:16;;;;;;;1.55;1.45;;;;;;;;;;5027568;28;20068;-61
2023/09/16 02:57:42;;;;;;;1.80;1.70;;;;;;;;;;5027777;28;20437;-61
2023/09/16 03:00:08;;;;;;;1.55;1.45;;;;;;;;;;5026381;28;20128;-61
2023/09/16 03:02:34;;;;;;;2.08;1.92;;;;;;;;;;5026870;28;20076;-61
2023/09/16 03:05:00;;;;;;;2.30;2.00;;;;;;;;;;5027448;28;20403;-62
2023/09/16 03:07:27;;;;;;;1.73;1.63;;;;;;;;;;5020571;28;20163;-61
2023/09/16 03:09:53;;;;;;;1.70;1.60;;;;;;;;;;5026937;28;20542;-61
2023/09/16 03:12:19;;;;;;;2.25;2.08;;;;;;;;;;5026147;28;20563;-61
2023/09/16 03:14:48;;;;;;;2.40;2.20;;;;;;;;;;5026412;28;20044;-61
2023/09/16 03:17:14;;;;;;;1.77;1.67;;;;;;;;;;5027487;28;20049;-61
2023/09/16 03:19:40;;;;;;;2.45;2.00;;;;;;;;;;5030371;28;20042;-61
2023/09/16 03:22:06;;;;;;;1.92;1.83;;;;;;;;;;5034280;28;20052;-61
2023/09/16 03:24:32;;;;;;;1.73;1.63;;;;;;;;;;5026891;28;20041;-61
2023/09/16 03:26:58;;;;;;;1.75;1.65;;;;;;;;;;5025811;28;20041;-60
2023/09/16 03:29:24;;;;;;;1.65;1.55;;;;;;;;;;5025600;28;20048;-61
2023/09/16 03:31:50;;;;;;;1.88;1.77;;;;;;;;;;5023399;28;20033;-61
2023/09/16 03:34:16;;;;;;;1.98;1.77;;;;;;;;;;5026279;28;20037;-60
2023/09/16 03:36:42;;;;;;;1.85;1.75;;;;;;;;;;5026786;28;20037;-61
2023/09/16 03:39:08;;;;;;;2.70;2.50;;;;;;;;;;5026208;28;20050;-61
2023/09/16 03:41:35;;;;;;;2.30;2.10;;;;;;;;;;5026590;28;20034;-61
2023/09/16 03:44:01;;;;;;;3.40;3.20;;;;;;;;;;5022644;28;20072;-61
2023/09/16 03:46:27;;;;;;;3.03;2.83;;;;;;;;;;5026594;28;20080;-61
2023/09/16 03:48:53;;;;;;;3.30;3.08;;;;;;;;;;5025681;28;20410;-61
2023/09/16 03:51:19;;;;;;;3.13;2.88;;;;;;;;;;5025847;28;20049;-61
2023/09/16 03:53:45;;;;;;;2.47;2.28;;;;;;;;;;5022930;28;20045;-61
2023/09/16 03:56:11;;;;;;;2.45;2.22;;;;;;;;;;5025279;28;20509;-61
2023/09/16 03:58:38;;;;;;;2.42;2.22;;;;;;;;;;5026009;28;20037;-61
2023/09/16 04:01:04;;;;;;;2.13;1.92;;;;;;;;;;5025673;28;20044;-61
2023/09/16 04:03:31;;;;;;;1.80;1.70;;;;;;;;;;5025041;28;20091;-61
2023/09/16 04:05:58;;;;;;;1.70;1.60;;;;;;;;;;5025684;28;20142;-62
2023/09/16 04:08:27;;;;;;;1.75;1.65;;;;;;;;;;5025496;28;20037;-61
2023/09/16 04:10:53;;;;;;;1.40;1.30;;;;;;;;;;5024884;28;20049;-61
2023/09/16 04:13:22;;;;;;;1.75;1.45;;;;;;;;;;5025827;28;20184;-61
2023/09/16 04:15:48;;;;;;;1.63;1.52;;;;;;;;;;5022290;28;20128;-61
2023/09/16 04:18:14;;;;;;;1.80;1.70;;;;;;;;;;5025719;28;20045;-61
2023/09/16 04:20:40;;;;;;;2.47;2.28;;;;;;;;;;5025967;28;20041;-60
2023/09/16 04:23:06;;;;;;;2.25;2.08;;;;;;;;;;5024431;28;20590;-61
2023/09/16 04:25:32;;;;;;;1.85;1.75;;;;;;;;;;5024504;28;20184;-60
2023/09/16 04:27:58;;;;;;;2.08;1.98;;;;;;;;;;5025187;28;20620;-61
2023/09/16 04:30:24;;;;;;;1.67;1.58;;;;;;;;;;5025672;28;20528;-61
2023/09/16 04:32:50;;;;;;;1.50;1.40;;;;;;;;;;5024828;28;20438;-60
2023/09/16 04:35:16;;;;;;;2.00;1.90;;;;;;;;;;5025469;28;20175;-61
2023/09/16 04:37:42;;;;;;;1.80;1.70;;;;;;;;;;5025895;28;20041;-61
2023/09/16 04:40:11;;;;;;;2.28;2.08;;;;;;;;;;5024225;28;21040;-61
2023/09/16 04:42:38;;;;;;;1.90;1.80;;;;;;;;;;5023447;28;20064;-61
2023/09/16 04:45:04;;;;;;;2.13;2.03;;;;;;;;;;5023725;28;20587;-61
2023/09/16 04:47:31;;;;;;;1.90;1.80;;;;;;;;;;5021919;28;20046;-61
2023/09/16 04:49:57;;;;;;;2.05;1.83;;;;;;;;;;5024943;28;20136;-61
2023/09/16 04:52:25;;;;;;;2.08;1.88;;;;;;;;;;5025099;28;20045;-61
2023/09/16 04:54:54;;;;;;;1.98;1.80;;;;;;;;;;5024931;28;20406;-61
2023/09/16 04:57:23;;;;;;;2.30;1.77;;;;;;;;;;5022457;28;20045;-61
2023/09/16 04:59:49;;;;;;;1.90;1.80;;;;;;;;;;5024184;28;20060;-61
2023/09/16 05:02:15;;;;;;;2.20;2.08;;;;;;;;;;5025620;28;20121;-61
2023/09/16 05:04:41;;;;;;;2.05;1.95;;;;;;;;;;5025287;28;20037;-61
2023/09/16 05:07:07;;;;;;;3.55;3.25;;;;;;;;;;5022644;28;20044;-61
2023/09/16 05:09:34;;;;;;;2.97;2.78;;;;;;;;;;5025243;28;20052;-60
2023/09/16 05:12:00;;;;;;;2.88;2.67;;;;;;;;;;5024718;28;20049;-61
2023/09/16 05:14:26;;;;;;;2.53;2.33;;;;;;;;;;5024664;28;20597;-61
2023/09/16 05:16:52;;;;;;;1.73;1.63;;;;;;;;;;5024013;28;20041;-61
2023/09/16 05:19:18;;;;;;;1.85;1.75;;;;;;;;;;5024774;28;20042;-60
2023/09/16 05:21:44;;;;;;;2.00;1.90;;;;;;;;;;5024651;28;20052;-61
2023/09/16 05:24:10;;;;;;;2.47;2.28;;;;;;;;;;5024698;28;20106;-61
2023/09/16 05:26:36;;;;;;;1.77;1.67;;;;;;;;;;5027781;28;20047;-61
2023/09/16 05:29:02;;;;;;;2.10;1.90;;;;;;;;;;5030463;28;20033;-61
2023/09/16 05:31:28;;;;;;;1.60;1.50;;;;;;;;;;5031507;28;20033;-61
2023/09/16 05:33:54;;;;;;;1.63;1.52;;;;;;;;;;5031077;28;20052;-61
2023/09/16 05:36:21;;;;;;;2.17;2.00;;;;;;;;;;5030587;28;20041;-61
2023/09/16 05:38:47;;;;;;;1.73;1.63;;;;;;;;;;5031574;28;20091;-61
2023/09/16 05:41:13;;;;;;;2.15;2.03;;;;;;;;;;5031569;28;20064;-61
2023/09/16 05:43:39;;;;;;;2.20;2.00;;;;;;;;;;5030746;28;20045;-61
2023/09/16 05:46:06;;;;;;;1.55;1.45;;;;;;;;;;5030956;28;20037;-61
2023/09/16 05:48:32;;;;;;;1.90;1.80;;;;;;;;;;5030950;28;20058;-61
2023/09/16 05:50:58;;;;;;;2.03;1.90;;;;;;;;;;5029950;28;20056;-61
2023/09/16 05:53:25;;;;;;;2.40;2.20;;;;;;;;;;5030521;28;20041;-61
2023/09/16 05:55:51;;;;;;;1.67;1.58;;;;;;;;;;5030566;28;20112;-61
2023/09/16 05:58:18;;;;;;;1.67;1.52;;;;;;;;;;5031853;28;20464;-60
2023/09/16 06:00:44;;;;;;;1.50;1.40;;;;;;;;;;5030973;28;20049;-61
2023/09/16 06:03:10;;;;;;;1.50;1.40;;;;;;;;;;5028907;28;20041;-60
2023/09/16 06:05:36;;;;;;;1.98;1.88;;;;;;;;;;5031147;28;20124;-61
2023/09/16 06:08:02;;;;;;;1.50;1.40;;;;;;;;;;5031143;28;20030;-61
2023/09/16 06:10:28;;;;;;;1.73;1.45;;;;;;;;;;5030185;28;20041;-61
2023/09/16 06:12:54;;;;;;;1.75;1.58;;;;;;;;;;5030516;28;20103;-61
2023/09/16 06:15:20;;;;;;;1.40;1.30;;;;;;;;;;5030706;28;20476;-61
2023/09/16 06:17:46;;;;;;;1.65;1.55;;;;;;;;;;5030821;28;20083;-61
2023/09/16 06:20:12;;;;;;;1.38;1.27;;;;;;;;;;5030430;28;20530;-61
2023/09/16 06:22:40;;;;;;;1.35;1.25;;;;;;;;;;5030968;28;20048;-61
2023/09/16 06:25:06;;;;;;;1.17;1.05;;;;;;;;;;5029973;28;20072;-61
2023/09/16 06:27:32;;;;;;;1.65;1.20;;;;;;;;;;5030280;28;20045;-61
2023/09/16 06:29:58;;;;;;;0.93;0.90;;;;;;;;;;5030461;28;20705;-61
2023/09/16 06:32:24;;;;;;;0.82;0.82;;;;;;;;;;5030421;28;20049;-60
2023/09/16 06:34:50;;;;;;;2.10;2.00;;;;;;;;;;5030308;28;20037;-60
2023/09/16 06:37:16;;;;;;;1.40;1.30;;;;;;;;;;5029792;28;20037;-61
2023/09/16 06:39:45;;;;;;;1.92;1.83;;;;;;;;;;5025701;28;20072;-61
2023/09/16 06:42:11;;;;;;;1.45;1.35;;;;;;;;;;5027216;28;20041;-61
2023/09/16 06:44:37;;;;;;;2.22;2.05;;;;;;;;;;5027159;28;20091;-61
2023/09/16 06:47:03;;;;;;;2.33;1.33;;;;;;;;;;5023687;28;20045;-61
2023/09/16 06:49:29;;;;;;;4.15;3.17;;;;;;;;;;5025790;28;20057;-61
2023/09/16 06:51:55;;;;;;;2.78;2.58;;;;;;;;;;5026458;28;20424;-61
2023/09/16 06:54:21;;;;;;;2.80;2.60;;;;;;;;;;5019855;28;20053;-61
2023/09/16 06:56:47;;;;;;;2.33;2.17;;;;;;;;;;5025807;28;20041;-61
2023/09/16 06:59:14;;;;;;;2.22;1.85;;;;;;;;;;5026132;28;20293;-61
2023/09/16 07:01:40;;;;;;;2.42;2.22;;;;;;;;;;5026744;28;20620;-61
2023/09/16 07:04:06;;;;;;;1.90;1.80;;;;;;;;;;5026518;28;20077;-61
2023/09/16 07:06:32;;;;;;;1.30;1.20;;;;;;;;;;5025863;28;20607;-61
2023/09/16 07:08:58;;;;;;;1.40;1.30;;;;;;;;;;5026250;28;20034;-61
2023/09/16 07:11:24;;;;;;;1.20;1.10;;;;;;;;;;5026467;28;20075;-61
2023/09/16 07:13:50;;;;;;;2.33;2.05;;;;;;;;;;5024393;28;20088;-61
2023/09/16 07:16:19;;;;;;;3.65;2.83;;;;;;;;;;5023320;28;20045;-61
2023/09/16 07:18:45;;;;;;;2.20;2.00;;;;;;;;;;5029894;28;20049;-61
2023/09/16 07:21:11;;;;;;;1.75;1.65;;;;;;;;;;5023048;28;20474;-61
2023/09/16 07:23:37;;;;;;;1.40;1.30;;;;;;;;;;5027746;28;20464;-61
2023/09/16 07:26:04;;;;;;;1.15;1.05;;;;;;;;;;5027560;28;20616;-61
2023/09/16 07:28:30;;;;;;;0.90;0.90;;;;;;;;;;5026878;28;20574;-62
2023/09/16 07:30:56;;;;;;;0.80;0.80;;;;;;;;;;5027587;28;20172;-61
2023/09/16 07:33:22;;;;;;;0.90;0.90;;;;;;;;;;5027867;28;20056;-61
2023/09/16 07:35:51;;;;;;;1.48;1.38;;;;;;;;;;5026382;28;20041;-63
2023/09/16 07:38:17;;;;;;;1.50;1.40;;;;;;;;;;5027920;28;20471;-62
2023/09/16 07:40:43;;;;;;;2.05;1.95;;;;;;;;;;5027478;28;20084;-63
2023/09/16 07:43:11;;;;;;;2.70;2.50;;;;;;;;;;5021988;28;20097;-65
2023/09/16 07:45:37;;;;;;;1.85;1.75;;;;;;;;;;5027222;28;20085;-63
2023/09/16 07:48:03;;;;;;;1.50;1.40;;;;;;;;;;5021484;28;20061;-63
2023/09/16 07:50:29;;;;;;;1.55;1.45;;;;;;;;;;5024502;28;20371;-64
2023/09/16 07:52:55;;;;;;;1.88;1.77;;;;;;;;;;5025591;28;20064;-64
2023/09/16 07:55:21;;;;;;;1.83;1.65;;;;;;;;;;5024122;28;20043;-63
2023/09/16 07:57:47;;;;;;;2.00;1.90;;;;;;;;;;5026772;28;20054;-64
2023/09/16 08:00:14;;;;;;;1.40;1.30;;;;;;;;;;5025909;28;20056;-63
2023/09/16 08:02:40;;;;;;;1.25;1.10;;;;;;;;;;5025816;28;20033;-63
2023/09/16 08:05:06;;;;;;;1.52;1.42;;;;;;;;;;5023342;28;20052;-63
2023/09/16 08:07:32;;;;;;;1.38;1.27;;;;;;;;;;5024370;28;20111;-63
2023/09/16 08:09:58;;;;;;;1.90;1.80;;;;;;;;;;5025323;28;20041;-63
2023/09/16 08:12:24;;;;;;;1.58;1.48;;;;;;;;;;5024445;28;21340;-63
2023/09/16 08:14:50;;;;;;;2.17;2.08;;;;;;;;;;5025838;28;20041;-63
2023/09/16 08:17:16;;;;;;;1.60;1.50;;;;;;;;;;5023282;28;20548;-68
2023/09/16 08:19:42;;;;;;;2.03;1.92;;;;;;;;;;5023436;28;20045;-63
2023/09/16 08:22:08;;;;;;;2.30;2.10;;;;;;;;;;5021012;28;20044;-63
2023/09/16 08:24:34;;;;;;;1.65;1.55;;;;;;;;;;5024864;28;20448;-63
2023/09/16 08:27:01;;;;;;;1.55;1.45;;;;;;;;;;5024696;28;20037;-63
2023/09/16 08:29:27;;;;;;;1.70;1.60;;;;;;;;;;5021812;28;20053;-63
2023/09/16 08:31:53;;;;;;;1.38;1.27;;;;;;;;;;5024756;28;20069;-63
2023/09/16 08:34:19;;;;;;;2.05;1.85;;;;;;;;;;5024603;28;20037;-63
2023/09/16 08:36:45;;;;;;;2.70;2.50;;;;;;;;;;5025971;28;20120;-63
2023/09/16 08:39:11;;;;;;;2.45;1.92;;;;;;;;;;5024977;28;20077;-64
2023/09/16 08:41:49;;;;;;;1.85;1.58;;;;;;;;;;5025667;28;20072;-63
2023/09/16 08:44:18;;;;;;;1.48;1.38;;;;;;;;;;5026111;28;20044;-63
2023/09/16 08:46:46;;;;;;;1.58;1.48;;;;;;;;;;5025348;28;20053;-63
2023/09/16 08:49:14;;;;;;;2.15;1.95;;;;;;;;;;5024601;28;20057;-64
2023/09/16 08:51:43;;;;;;;3.15;2.92;;;;;;;;;;5024543;28;20052;-64
2023/09/16 08:54:10;;;;;;;2.30;2.13;;;;;;;;;;5024920;28;20041;-64
2023/09/16 08:56:36;;;;;;;4.32;3.97;;;;;;;;;;5016428;28;20123;-64
2023/09/16 08:59:02;;;;;;;3.20;3.00;;;;;;;;;;5023917;28;20045;-64
2023/09/16 09:01:29;;;;;;;2.78;2.53;;;;;;;;;;5023998;28;20096;-64
2023/09/16 09:03:55;;;;;;;3.10;2.88;;;;;;;;;;5025391;28;20046;-64
2023/09/16 09:06:21;;;;;;;2.63;2.42;;;;;;;;;;5025359;28;20041;-64
2023/09/16 09:08:48;;;;;;;1.95;1.85;;;;;;;;;;5026454;28;20037;-64
2023/09/16 09:11:15;;;;;;;4.13;3.83;;;;;;;;;;5016467;28;20048;-64
2023/09/16 09:13:45;;;;;;;3.40;3.10;;;;;;;;;;5014176;28;20077;-64
2023/09/16 09:16:15;;;;;;;3.22;3.03;;;;;;;;;;5014841;28;20468;-64
2023/09/16 09:18:42;;;;;;;2.92;2.72;;;;;;;;;;5025945;28;20398;-64
2023/09/16 09:21:08;;;;;;;3.72;3.42;;;;;;;;;;5016721;28;20045;-64
2023/09/16 09:23:34;;;;;;;2.78;2.58;;;;;;;;;;5015028;28;20046;-64
2023/09/16 09:26:00;;;;;;;2.30;2.10;;;;;;;;;;5017990;28;20444;-64
2023/09/16 09:28:27;;;;;;;1.85;1.75;;;;;;;;;;5023256;28;20655;-64
2023/09/16 09:30:53;;;;;;;4.00;1.90;;;;;;;;;;5024755;28;20119;-64
2023/09/16 09:33:20;;;;;;;2.20;1.48;;;;;;;;;;5025795;28;20042;-64
2023/09/16 09:35:46;;;;;;;2.15;1.77;;;;;;;;;;5020982;28;20048;-64
2023/09/16 09:38:14;;;;;;;2.40;2.20;;;;;;;;;;5021510;28;20034;-63
2023/09/16 09:40:42;;;;;;;1.20;1.10;;;;;;;;;;5026402;28;20042;-64
2023/09/16 09:43:08;;;;;;;1.38;1.27;;;;;;;;;;5025201;28;20081;-64
2023/09/16 09:45:37;;;;;;;1.60;1.50;;;;;;;;;;5025557;28;20058;-64
2023/09/16 09:48:04;;;;;;;1.33;1.23;;;;;;;;;;5023833;28;20061;-64
2023/09/16 09:50:30;;;;;;;1.00;1.00;;;;;;;;;;5018035;28;20049;-64
2023/09/16 09:52:56;;;;;;;1.00;1.00;;;;;;;;;;5022462;28;20045;-64
2023/09/16 09:55:23;;;;;;;1.50;1.40;;;;;;;;;;5018095;28;20041;-64
2023/09/16 09:57:51;;;;;;;1.70;1.02;;;;;;;;;;5015729;28;20091;-64
2023/09/16 10:00:18;;;;;;;1.00;1.00;;;;;;;;;;5012006;28;20211;-64
2023/09/16 10:02:45;;;;;;;1.23;1.13;;;;;;;;;;5013969;28;20077;-63
2023/09/16 10:05:15;;;;;;;1.02;1.00;;;;;;;;;;5018322;28;20041;-64
2023/09/16 10:07:44;;;;;;;1.20;1.10;;;;;;;;;;5023128;28;20049;-64
2023/09/16 10:10:31;;;;;;;0.73;0.70;;;;;;;;;;5021600;28;20045;-64
2023/09/16 10:12:57;;;;;;;1.45;1.35;;;;;;;;;;5025256;28;20051;-64
2023/09/16 10:15:24;;;;;;;1.50;1.40;;;;;;;;;;5020976;28;20134;-63
2023/09/16 10:17:50;;;;;;;1.55;1.45;;;;;;;;;;5024341;28;20112;-64
2023/09/16 10:20:17;;;;;;;2.85;2.65;;;;;;;;;;5027471;28;20085;-64
2023/09/16 10:22:44;;;;;;;1.85;1.75;;;;;;;;;;5023892;28;20064;-64
2023/09/16 10:25:12;;;;;;;3.00;2.80;;;;;;;;;;5021650;28;20493;-64
2023/09/16 10:27:40;;;;;;;2.00;1.85;;;;;;;;;;5024079;28;20037;-63
2023/09/16 10:30:07;;;;;;;2.42;1.60;;;;;;;;;;5027294;28;20073;-62
2023/09/16 10:32:33;;;;;;;1.42;1.33;;;;;;;;;;5022964;28;20041;-63
2023/09/16 10:35:01;;;;;;;1.30;1.20;;;;;;;;;;5021358;28;20068;-63
2023/09/16 10:37:28;;;;;;;1.35;1.25;;;;;;;;;;5015702;28;20050;-63
2023/09/16 10:39:55;;;;;;;1.40;1.13;;;;;;;;;;5024859;28;20048;-63
2023/09/16 10:42:22;;;;;;;1.35;1.25;;;;;;;;;;5026630;28;20042;-63
2023/09/16 10:44:48;;;;;;;1.60;1.50;;;;;;;;;;5016991;28;20038;-63
2023/09/16 10:47:16;;;;;;;2.10;2.00;;;;;;;;;;5024851;28;20397;-63
2023/09/16 10:49:44;;;;;;;2.85;1.67;;;;;;;;;;5026050;28;20063;-63
2023/09/16 10:52:14;;;;;;;1.50;1.40;;;;;;;;;;5017685;28;20042;-63
2023/09/16 10:54:51;;;;;;;1.20;1.10;;;;;;;;;;5024759;28;20056;-63
2023/09/16 10:57:21;;;;;;;1.35;1.25;;;;;;;;;;5020006;28;20639;-63
2023/09/16 10:59:50;;;;;;;1.70;1.20;;;;;;;;;;5025413;28;20080;-63
2023/09/16 11:02:32;;;;;;;1.50;1.40;;;;;;;;;;5023784;28;20041;-63
2023/09/16 11:04:58;;;;;;;1.33;1.23;;;;;;;;;;5023812;28;20041;-63
2023/09/16 11:07:24;;;;;;;1.88;1.60;;;;;;;;;;5026575;28;20080;-63
2023/09/16 11:09:53;;;;;;;1.50;1.38;;;;;;;;;;5027851;28;20045;-63
2023/09/16 11:12:19;;;;;;;1.50;1.40;;;;;;;;;;5018994;28;20462;-63
2023/09/16 11:14:45;;;;;;;1.75;1.20;;;;;;;;;;5025938;28;20041;-62
2023/09/16 11:17:14;;;;;;;1.45;1.35;;;;;;;;;;5024703;28;20037;-63
2023/09/16 11:19:40;;;;;;;1.70;1.33;;;;;;;;;;5020868;28;20038;-63
2023/09/16 11:22:06;;;;;;;1.50;1.30;;;;;;;;;;5023083;28;20048;-63
2023/09/16 11:24:36;;;;;;;1.38;1.23;;;;;;;;;;5023877;28;20606;-62
2023/09/16 11:27:02;;;;;;;0.90;0.90;;;;;;;;;;5025064;28;20647;-62
2023/09/16 11:29:29;;;;;;;0.85;0.85;;;;;;;;;;5026126;28;20056;-62
2023/09/16 11:31:56;;;;;;;1.40;1.30;;;;;;;;;;5025799;28;20068;-62
2023/09/16 11:34:29;;;;;;;1.25;1.10;;;;;;;;;;5022238;28;20402;-62
2023/09/16 11:36:57;;;;;;;1.40;1.27;;;;;;;;;;5017450;28;20111;-62
2023/09/16 11:39:32;;;;;;;1.50;1.35;;;;;;;;;;5023442;28;20464;-62
2023/09/16 11:41:58;;;;;;;1.60;1.50;;;;;;;;;;5024967;28;20049;-62
2023/09/16 11:44:24;;;;;;;1.77;1.65;;;;;;;;;;5025324;28;20060;-62
2023/09/16 11:46:51;;;;;;;1.40;1.30;;;;;;;;;;5025709;28;20037;-62
2023/09/16 11:49:17;;;;;;;1.35;1.25;;;;;;;;;;5025346;28;20048;-63
2023/09/16 11:51:43;;;;;;;1.35;1.25;;;;;;;;;;5025107;28;20053;-62
2023/09/16 11:54:09;;;;;;;0.98;0.98;;;;;;;;;;5025230;28;20670;-62
2023/09/16 11:56:35;;;;;;;1.10;1.00;;;;;;;;;;5025644;28;20041;-62
2023/09/16 11:59:03;;;;;;;1.20;1.10;;;;;;;;;;5025705;28;20559;-63
2023/09/16 12:01:30;;;;;;;1.55;1.23;;;;;;;;;;5025315;28;20120;-62
2023/09/16 12:03:57;;;;;;;0.70;0.70;;;;;;;;;;5025704;28;20041;-62
2023/09/16 12:06:25;;;;;;;1.20;1.10;;;;;;;;;;5026415;28;20045;-62
2023/09/16 12:08:52;;;;;;;1.15;0.80;;;;;;;;;;5025909;28;20073;-62
2023/09/16 12:11:18;;;;;;;1.17;1.00;;;;;;;;;;5026263;28;20037;-62
2023/09/16 12:13:44;;;;;;;1.08;0.98;;;;;;;;;;5026279;28;20033;-62
2023/09/16 12:16:11;;;;;;;1.10;0.90;;;;;;;;;;5024919;28;20501;-63
2023/09/16 12:18:37;;;;;;;0.80;0.80;;;;;;;;;;5026346;28;20874;-62
2023/09/16 12:21:03;;;;;;;0.50;0.50;;;;;;;;;;5025519;28;20382;-62
2023/09/16 12:23:30;;;;;;;0.63;0.60;;;;;;;;;;5024263;28;20037;-62
2023/09/16 12:25:58;;;;;;;0.50;0.50;;;;;;;;;;5021878;28;20156;-62
2023/09/16 12:28:24;;;;;;;0.90;0.90;;;;;;;;;;5021412;28;20033;-63
2023/09/16 12:30:55;;;;;;;1.02;0.93;;;;;;;;;;5024556;28;20095;-63
2023/09/16 12:33:37;;;;;;;0.80;0.80;;;;;;;;;;5023023;28;20041;-64
2023/09/16 12:36:03;;;;;;;0.93;0.90;;;;;;;;;;5019607;28;20067;-63
2023/09/16 12:38:30;;;;;;;0.77;0.77;;;;;;;;;;5021874;28;20126;-63
2023/09/16 12:40:56;;;;;;;1.30;0.77;;;;;;;;;;5024351;28;20402;-63
2023/09/16 12:43:22;;;;;;;0.80;0.80;;;;;;;;;;5026120;28;20041;-63
2023/09/16 12:45:49;;;;;;;0.68;0.68;;;;;;;;;;5025381;28;20095;-64
2023/09/16 12:48:15;;;;;;;0.60;0.60;;;;;;;;;;5024100;28;20465;-63
2023/09/16 12:50:41;;;;;;;0.93;0.70;;;;;;;;;;5023042;28;20053;-63
2023/09/16 12:53:07;;;;;;;0.88;0.88;;;;;;;;;;5020354;28;20045;-63
2023/09/16 12:55:33;;;;;;;1.20;1.10;;;;;;;;;;5024092;28;20053;-63
2023/09/16 12:58:00;;;;;;;0.82;0.70;;;;;;;;;;5023801;28;20099;-64
2023/09/16 13:00:26;;;;;;;0.63;0.63;;;;;;;;;;5025323;28;20132;-64
2023/09/16 13:02:55;;;;;;;0.73;0.70;;;;;;;;;;5025500;28;20076;-64
2023/09/16 13:05:23;;;;;;;2.88;0.90;;;;;;;;;;5025337;28;20039;-64
2023/09/16 13:07:54;;;;;;;0.70;0.70;;;;;;;;;;5025947;28;20059;-64
2023/09/16 13:10:20;;;;;;;0.95;0.88;;;;;;;;;;5024356;28;20080;-64
2023/09/16 13:12:50;;;;;;;0.77;0.73;;;;;;;;;;5024654;28;20065;-64
2023/09/16 13:15:17;;;;;;;0.70;0.70;;;;;;;;;;5025117;28;20083;-64
2023/09/16 13:17:44;;;;;;;1.05;0.95;;;;;;;;;;5022126;28;20548;-64
2023/09/16 13:20:14;;;;;;;2.42;1.10;;;;;;;;;;5022749;28;20041;-64
2023/09/16 13:22:41;;;;;;;0.93;0.90;;;;;;;;;;5019813;28;20045;-64
2023/09/16 13:25:41;;;;;;;1.10;1.02;;;;;;;;;;5024729;28;20037;-64
2023/09/16 13:28:07;;;;;;;0.93;0.93;;;;;;;;;;5018281;28;20045;-64
2023/09/16 13:30:37;;;;;;;1.02;0.90;;;;;;;;;;5023741;28;20051;-64
2023/09/16 13:33:05;;;;;;;0.80;0.80;;;;;;;;;;5021885;28;20047;-64
2023/09/16 13:35:31;;;;;;;2.17;1.08;;;;;;;;;;5024342;28;20053;-64
2023/09/16 13:37:57;;;;;;;1.08;1.08;;;;;;;;;;5024610;28;20049;-64
2023/09/16 13:40:23;;;;;;;1.40;1.00;;;;;;;;;;5025074;28;20041;-64
2023/09/16 13:42:49;;;;;;;0.82;0.82;;;;;;;;;;5025265;28;20049;-64
2023/09/16 13:45:15;;;;;;;0.80;0.70;;;;;;;;;;5025241;28;20046;-63
2023/09/16 13:47:41;;;;;;;1.30;1.20;;;;;;;;;;5025377;28;20052;-63
2023/09/16 13:50:07;;;;;;;1.60;1.27;;;;;;;;;;5028523;28;20104;-63
2023/09/16 13:52:33;;;;;;;0.80;0.80;;;;;;;;;;5029126;28;20470;-63
2023/09/16 13:54:59;;;;;;;0.80;0.80;;;;;;;;;;5028560;28;20107;-63
2023/09/16 13:57:25;;;;;;;1.13;1.00;;;;;;;;;;5029643;28;20048;-64
2023/09/16 13:59:51;;;;;;;0.88;0.85;;;;;;;;;;5030137;28;20045;-64
2023/09/16 14:02:17;;;;;;;0.82;0.82;;;;;;;;;;5028469;28;20040;-64
2023/09/16 14:04:43;;;;;;;1.92;1.00;;;;;;;;;;5029183;28;20029;-63
2023/09/16 14:07:09;;;;;;;0.70;0.70;;;;;;;;;;5028282;28;20064;-63
2023/09/16 14:09:35;;;;;;;1.00;0.90;;;;;;;;;;5028025;28;20075;-63
2023/09/16 14:12:01;;;;;;;1.02;1.00;;;;;;;;;;5028226;28;20033;-63
2023/09/16 14:14:27;;;;;;;1.75;1.30;;;;;;;;;;5028746;28;20547;-63
2023/09/16 14:16:53;;;;;;;1.35;1.20;;;;;;;;;;5027403;28;20124;-63
2023/09/16 14:19:20;;;;;;;0.82;0.73;;;;;;;;;;5028179;28;20116;-63
2023/09/16 14:21:46;;;;;;;1.27;0.82;;;;;;;;;;5028411;28;20088;-63
2023/09/16 14:24:12;;;;;;;0.80;0.80;;;;;;;;;;5027689;28;20358;-63
2023/09/16 14:26:38;;;;;;;0.50;0.50;;;;;;;;;;5028148;28;20041;-64
2023/09/16 14:29:04;;;;;;;0.98;0.98;;;;;;;;;;5027993;28;20416;-64
2023/09/16 14:31:30;;;;;;;0.63;0.63;;;;;;;;;;5027733;28;20037;-64
2023/09/16 14:33:57;;;;;;;0.52;0.52;;;;;;;;;;5027628;28;20044;-64
2023/09/16 14:36:22;;;;;;;0.57;0.50;;;;;;;;;;5027902;28;20095;-64
2023/09/16 14:38:52;;;;;;;0.68;0.60;;;;;;;;;;5027835;28;20045;-64
2023/09/16 14:41:18;;;;;;;0.30;0.30;;;;;;;;;;5028136;28;20033;-64